createdAt,value
2022-08-19T00:00:28.360Z,18.90
2022-08-19T00:02:55.548Z,18.90
2022-08-19T00:05:23.311Z,18.90
2022-08-19T00:07:50.681Z,18.90
2022-08-19T00:10:19.999Z,18.90
2022-08-19T00:12:47.248Z,18.90
2022-08-19T00:15:17.674Z,18.90
2022-08-19T00:17:45.334Z,18.90
2022-08-19T00:20:17.709Z,18.80
2022-08-19T00:22:45.885Z,18.80
2022-08-19T00:25:13.177Z,18.80
2022-08-19T00:27:42.566Z,18.80
2022-08-19T00:30:11.131Z,18.80
2022-08-19T00:32:39.618Z,18.80
2022-08-19T00:35:07.404Z,18.70
2022-08-19T00:37:35.855Z,18.60
2022-08-19T00:40:06.119Z,18.50
2022-08-19T00:42:32.922Z,18.50
2022-08-19T00:44:59.630Z,18.50
2022-08-19T00:47:26.399Z,18.50
2022-08-19T00:49:59.121Z,18.50
2022-08-19T00:52:35.666Z,18.40
2022-08-19T00:55:07.376Z,18.30
2022-08-19T00:57:39.154Z,18.20
2022-08-19T01:00:12.386Z,18.20
2022-08-19T01:02:39.633Z,18.30
2022-08-19T01:05:09.394Z,18.20
2022-08-19T01:07:38.558Z,18.30
2022-08-19T01:10:08.417Z,18.20
2022-08-19T01:12:35.515Z,18.20
2022-08-19T01:15:02.328Z,18.20
2022-08-19T01:17:28.993Z,18.10
2022-08-19T01:19:55.615Z,18.00
2022-08-19T01:22:31.484Z,18.10
2022-08-19T01:25:00.400Z,18.10
2022-08-19T01:27:32.995Z,18.00
2022-08-19T01:30:12.924Z,18.00
2022-08-19T01:32:39.750Z,17.90
2022-08-19T01:35:07.222Z,17.90
2022-08-19T01:37:44.709Z,18.00
2022-08-19T01:40:12.219Z,18.00
2022-08-19T01:42:39.097Z,17.90
2022-08-19T01:45:08.348Z,17.90
2022-08-19T01:47:38.631Z,17.90
2022-08-19T01:50:08.519Z,17.90
2022-08-19T01:52:37.278Z,17.80
2022-08-19T01:55:06.087Z,17.90
2022-08-19T01:57:33.146Z,17.80
2022-08-19T02:00:00.913Z,17.90
2022-08-19T02:02:27.654Z,17.90
2022-08-19T02:04:54.275Z,17.90
2022-08-19T02:07:24.997Z,17.80
2022-08-19T02:09:51.669Z,17.90
2022-08-19T02:12:18.328Z,17.80
2022-08-19T02:14:44.980Z,17.90
2022-08-19T02:17:11.653Z,17.80
2022-08-19T02:19:39.497Z,17.80
2022-08-19T02:22:07.822Z,17.70
2022-08-19T02:24:35.013Z,17.70
2022-08-19T02:27:01.625Z,17.70
2022-08-19T02:29:28.569Z,17.70
2022-08-19T02:31:55.208Z,17.70
2022-08-19T02:34:21.868Z,17.70
2022-08-19T02:36:51.804Z,17.80
2022-08-19T02:39:20.062Z,17.80
2022-08-19T02:41:46.774Z,17.80
2022-08-19T02:44:27.591Z,17.80
2022-08-19T02:46:58.115Z,17.80
2022-08-19T02:49:24.911Z,17.80
2022-08-19T02:51:51.590Z,17.80
2022-08-19T02:54:18.383Z,17.80
2022-08-19T02:56:45.751Z,17.70
2022-08-19T02:59:13.151Z,17.70
2022-08-19T03:01:42.130Z,17.70
2022-08-19T03:04:11.535Z,17.70
2022-08-19T03:06:40.713Z,17.60
2022-08-19T03:09:07.422Z,17.60
2022-08-19T03:11:34.416Z,17.60
2022-08-19T03:14:03.172Z,17.50
2022-08-19T03:16:33.384Z,17.50
2022-08-19T03:19:01.906Z,17.50
2022-08-19T03:21:32.021Z,17.40
2022-08-19T03:24:00.922Z,17.50
2022-08-19T03:26:27.870Z,17.40
2022-08-19T03:28:58.400Z,17.40
2022-08-19T03:31:43.773Z,17.40
2022-08-19T03:34:15.645Z,17.40
2022-08-19T03:36:42.452Z,17.40
2022-08-19T03:39:10.710Z,17.30
2022-08-19T03:41:44.636Z,17.30
2022-08-19T03:44:16.949Z,17.30
2022-08-19T03:46:46.298Z,17.30
2022-08-19T03:49:14.183Z,17.30
2022-08-19T03:51:42.816Z,17.30
2022-08-19T03:54:12.347Z,17.30
2022-08-19T03:56:40.564Z,17.30
2022-08-19T03:59:10.165Z,17.30
2022-08-19T04:01:36.920Z,17.20
2022-08-19T04:04:04.631Z,17.20
2022-08-19T04:06:35.469Z,17.10
2022-08-19T04:09:09.041Z,17.10
2022-08-19T04:11:43.581Z,17.10
2022-08-19T04:14:14.499Z,17.10
2022-08-19T04:16:41.242Z,17.00
2022-08-19T04:19:08.512Z,17.00
2022-08-19T04:21:35.732Z,17.00
2022-08-19T04:24:03.816Z,16.90
2022-08-19T04:26:33.986Z,16.90
2022-08-19T04:29:04.374Z,17.00
2022-08-19T04:31:36.583Z,17.00
2022-08-19T04:34:06.678Z,17.00
2022-08-19T04:36:36.457Z,17.00
2022-08-19T04:39:20.838Z,17.00
2022-08-19T04:42:06.521Z,17.00
2022-08-19T04:44:35.385Z,17.10
2022-08-19T04:47:10.849Z,17.10
2022-08-19T04:49:38.235Z,17.10
2022-08-19T04:52:04.902Z,17.10
2022-08-19T04:54:38.606Z,17.10
2022-08-19T04:57:11.141Z,17.00
2022-08-19T04:59:39.533Z,17.00
2022-08-19T05:02:09.414Z,16.90
2022-08-19T05:04:39.814Z,16.90
2022-08-19T05:07:08.388Z,16.90
2022-08-19T05:09:56.609Z,16.90
2022-08-19T05:12:22.186Z,17.00
2022-08-19T05:14:53.459Z,17.00
2022-08-19T05:17:29.073Z,16.90
2022-08-19T05:20:16.834Z,17.00
2022-08-19T05:22:45.273Z,17.00
2022-08-19T05:25:16.316Z,17.00
2022-08-19T05:27:43.526Z,16.90
2022-08-19T05:30:12.074Z,16.90
2022-08-19T05:32:40.501Z,17.00
2022-08-19T05:35:07.848Z,17.10
2022-08-19T05:37:34.662Z,17.10
2022-08-19T05:40:02.171Z,17.20
2022-08-19T05:42:32.441Z,17.30
2022-08-19T05:44:59.281Z,17.40
2022-08-19T05:47:26.036Z,17.40
2022-08-19T05:49:52.743Z,17.40
2022-08-19T05:52:25.844Z,17.40
2022-08-19T05:54:56.445Z,17.50
2022-08-19T05:57:24.436Z,17.50
2022-08-19T05:59:53.307Z,17.50
2022-08-19T06:02:26.920Z,17.40
2022-08-19T06:04:53.672Z,17.40
2022-08-19T06:07:20.430Z,17.40
2022-08-19T06:09:56.052Z,17.40
2022-08-19T06:12:34.922Z,17.40
2022-08-19T06:15:11.228Z,17.50
2022-08-19T06:17:38.151Z,17.60
2022-08-19T06:20:07.007Z,17.60
2022-08-19T06:22:42.613Z,17.70
2022-08-19T06:25:12.438Z,17.70
2022-08-19T06:27:48.250Z,17.90
2022-08-19T06:30:20.268Z,18.00
2022-08-19T06:32:46.904Z,17.90
2022-08-19T06:35:14.613Z,17.80
2022-08-19T06:37:43.820Z,17.90
2022-08-19T06:40:13.385Z,17.90
2022-08-19T06:42:40.347Z,17.80
2022-08-19T06:45:24.507Z,17.90
2022-08-19T06:47:56.698Z,18.10
2022-08-19T06:50:25.052Z,18.20
2022-08-19T06:52:52.378Z,18.20
2022-08-19T06:55:20.110Z,18.20
2022-08-19T06:57:47.391Z,18.30
2022-08-19T07:00:15.014Z,18.50
2022-08-19T07:02:48.217Z,18.50
2022-08-19T07:05:22.630Z,18.70
2022-08-19T07:07:49.278Z,18.90
2022-08-19T07:10:18.069Z,18.80
2022-08-19T07:12:47.794Z,19.00
2022-08-19T07:15:14.601Z,19.20
2022-08-19T07:17:42.159Z,19.10
2022-08-19T07:20:10.178Z,19.40
2022-08-19T07:22:40.716Z,19.60
2022-08-19T07:25:08.854Z,19.80
2022-08-19T07:27:35.723Z,19.70
2022-08-19T07:30:02.815Z,19.80
2022-08-19T07:32:30.210Z,19.90
2022-08-19T07:34:57.245Z,19.80
2022-08-19T07:37:32.458Z,19.70
2022-08-19T07:40:00.830Z,19.70
2022-08-19T07:42:30.418Z,19.60
2022-08-19T07:44:57.058Z,19.70
2022-08-19T07:47:48.158Z,19.80
2022-08-19T07:50:12.503Z,19.80
2022-08-19T07:52:40.535Z,19.80
2022-08-19T07:55:13.607Z,20.10
2022-08-19T07:57:57.039Z,20.10
2022-08-19T08:00:24.697Z,20.20
2022-08-19T08:02:52.231Z,19.90
2022-08-19T08:05:43.606Z,19.90
2022-08-19T08:08:48.066Z,19.90
2022-08-19T08:11:20.521Z,20.20
2022-08-19T08:14:00.267Z,20.10
2022-08-19T08:16:30.820Z,20.10
2022-08-19T08:18:58.642Z,20.10
2022-08-19T08:21:25.746Z,20.50
2022-08-19T08:23:56.045Z,20.60
2022-08-19T08:26:23.905Z,20.60
2022-08-19T08:28:50.897Z,20.70
2022-08-19T08:31:19.472Z,20.70
2022-08-19T08:33:47.834Z,20.50
2022-08-19T08:36:14.784Z,20.30
2022-08-19T08:38:43.042Z,20.70
2022-08-19T08:41:33.797Z,20.90
2022-08-19T08:44:00.664Z,21.00
2022-08-19T08:46:50.367Z,21.00
2022-08-19T08:49:29.302Z,21.10
2022-08-19T08:52:01.486Z,21.10
2022-08-19T08:54:54.764Z,20.80
2022-08-19T08:57:40.958Z,20.80
2022-08-19T09:00:17.446Z,20.90
2022-08-19T09:02:45.063Z,21.00
2022-08-19T09:05:22.017Z,20.90
2022-08-19T09:07:49.307Z,21.00
2022-08-19T09:10:22.750Z,21.00
2022-08-19T09:13:09.521Z,21.30
2022-08-19T09:16:00.034Z,21.40
2022-08-19T09:18:26.658Z,21.40
2022-08-19T09:20:57.682Z,21.30
2022-08-19T09:23:27.070Z,21.60
2022-08-19T09:25:54.107Z,21.80
2022-08-19T09:28:25.481Z,21.90
2022-08-19T09:30:54.160Z,21.90
2022-08-19T09:33:21.056Z,21.80
2022-08-19T09:35:53.171Z,21.80
2022-08-19T09:38:21.316Z,21.90
2022-08-19T09:40:48.039Z,21.70
2022-08-19T09:43:14.678Z,21.60
2022-08-19T09:45:41.619Z,21.70
2022-08-19T09:48:09.548Z,21.70
2022-08-19T09:50:51.780Z,21.70
2022-08-19T09:53:19.149Z,21.90
2022-08-19T09:55:45.948Z,22.30
2022-08-19T09:58:13.066Z,22.40
2022-08-19T10:00:40.151Z,22.60
2022-08-19T10:03:07.010Z,22.50
2022-08-19T10:05:48.978Z,22.30
2022-08-19T10:08:28.370Z,22.40
2022-08-19T10:10:55.972Z,22.80
2022-08-19T10:13:27.429Z,23.10
2022-08-19T10:15:56.971Z,23.10
2022-08-19T10:18:25.296Z,23.40
2022-08-19T10:20:54.478Z,23.70
2022-08-19T10:23:22.097Z,23.50
2022-08-19T10:25:49.854Z,23.30
2022-08-19T10:28:19.065Z,23.20
2022-08-19T10:30:46.497Z,23.30
2022-08-19T10:33:14.911Z,23.30
2022-08-19T10:35:56.502Z,23.30
2022-08-19T10:38:31.636Z,23.30
2022-08-19T10:41:07.518Z,23.50
2022-08-19T10:43:36.745Z,23.50
2022-08-19T10:46:04.752Z,23.60
2022-08-19T10:48:36.377Z,23.50
2022-08-19T10:51:23.064Z,23.60
2022-08-19T10:53:51.540Z,23.30
2022-08-19T10:56:37.580Z,23.30
2022-08-19T10:59:05.505Z,23.20
2022-08-19T11:01:34.907Z,23.10
2022-08-19T11:04:04.084Z,23.20
2022-08-19T11:06:33.145Z,23.40
2022-08-19T11:09:00.879Z,23.60
2022-08-19T11:11:29.253Z,23.60
2022-08-19T11:13:56.176Z,23.60
2022-08-19T11:16:26.291Z,23.70
2022-08-19T11:18:59.257Z,23.80
2022-08-19T11:21:36.166Z,23.70
2022-08-19T11:24:06.904Z,23.90
2022-08-19T11:26:35.490Z,23.90
2022-08-19T11:29:04.070Z,23.90
2022-08-19T11:31:32.763Z,24.10
2022-08-19T11:34:02.402Z,24.20
2022-08-19T11:36:29.377Z,24.30
2022-08-19T11:38:56.248Z,24.40
2022-08-19T11:41:24.822Z,24.60
2022-08-19T11:43:53.771Z,24.80
2022-08-19T11:46:20.537Z,25.00
2022-08-19T11:48:47.213Z,25.40
2022-08-19T11:51:19.668Z,25.40
2022-08-19T11:53:46.694Z,25.30
2022-08-19T11:56:13.521Z,25.30
2022-08-19T11:58:42.711Z,25.40
2022-08-19T12:01:12.636Z,25.80
2022-08-19T12:03:39.562Z,26.30
2022-08-19T12:06:13.582Z,26.10
2022-08-19T12:08:44.679Z,26.20
2022-08-19T12:11:13.177Z,26.60
2022-08-19T12:13:40.065Z,26.90
2022-08-19T12:16:13.015Z,26.70
2022-08-19T12:18:42.795Z,26.80
2022-08-19T12:21:11.044Z,26.50
2022-08-19T12:23:38.528Z,26.30
2022-08-19T12:26:05.644Z,26.40
2022-08-19T12:28:32.401Z,27.30
2022-08-19T12:30:59.254Z,27.40
2022-08-19T12:33:28.777Z,27.70
2022-08-19T12:35:56.045Z,27.60
2022-08-19T12:38:25.870Z,27.80
2022-08-19T12:40:56.004Z,27.60
2022-08-19T12:43:25.600Z,27.60
2022-08-19T12:45:52.218Z,27.80
2022-08-19T12:48:33.507Z,27.80
2022-08-19T12:51:06.667Z,27.80
2022-08-19T12:53:33.294Z,27.70
2022-08-19T12:56:01.318Z,28.00
2022-08-19T12:58:29.257Z,28.00
2022-08-19T13:00:56.059Z,28.10
2022-08-19T13:03:30.045Z,28.10
2022-08-19T13:05:57.106Z,28.40
2022-08-19T13:08:23.870Z,27.90
2022-08-19T13:10:51.681Z,28.10
2022-08-19T13:13:18.543Z,28.20
2022-08-19T13:15:46.152Z,28.50
2022-08-19T13:18:13.488Z,28.90
2022-08-19T13:20:41.641Z,29.20
2022-08-19T13:23:09.265Z,29.30
2022-08-19T13:25:37.084Z,29.60
2022-08-19T13:28:04.221Z,30.10
2022-08-19T13:30:49.417Z,29.60
2022-08-19T13:33:16.573Z,29.60
2022-08-19T13:35:50.563Z,29.50
2022-08-19T13:38:22.087Z,29.20
2022-08-19T13:40:51.247Z,29.40
2022-08-19T13:43:22.764Z,29.40
2022-08-19T13:45:56.726Z,29.60
2022-08-19T13:48:25.146Z,29.80
2022-08-19T13:50:51.764Z,29.40
2022-08-19T13:53:19.333Z,29.20
2022-08-19T13:55:46.146Z,29.70
2022-08-19T13:58:13.992Z,29.40
2022-08-19T14:00:43.997Z,29.60
2022-08-19T14:03:11.317Z,29.40
2022-08-19T14:05:38.758Z,29.20
2022-08-19T14:08:05.914Z,29.60
2022-08-19T14:10:32.872Z,29.80
2022-08-19T14:13:02.641Z,29.30
2022-08-19T14:15:30.450Z,29.90
2022-08-19T14:17:57.488Z,30.50
2022-08-19T14:20:25.975Z,30.10
2022-08-19T14:22:53.871Z,30.50
2022-08-19T14:25:25.105Z,30.10
2022-08-19T14:27:52.400Z,30.90
2022-08-19T14:30:26.311Z,30.90
2022-08-19T14:32:53.166Z,31.00
2022-08-19T14:35:20.004Z,31.30
2022-08-19T14:37:47.248Z,30.90
2022-08-19T14:40:21.478Z,31.20
2022-08-19T14:42:49.384Z,31.40
2022-08-19T14:45:16.123Z,31.50
2022-08-19T14:47:42.931Z,31.80
2022-08-19T14:50:18.163Z,31.50
2022-08-19T14:52:48.592Z,31.50
2022-08-19T14:55:16.628Z,31.70
2022-08-19T14:57:44.459Z,31.50
2022-08-19T15:00:15.250Z,31.90
2022-08-19T15:02:45.072Z,34.40
2022-08-19T15:05:13.572Z,37.90
2022-08-19T15:07:41.842Z,38.60
2022-08-19T15:10:10.369Z,38.60
2022-08-19T15:12:39.325Z,38.70
2022-08-19T15:15:06.837Z,40.20
2022-08-19T15:17:54.265Z,40.40
2022-08-19T15:20:23.632Z,40.80
2022-08-19T15:22:50.564Z,40.10
2022-08-19T15:25:19.764Z,35.50
2022-08-19T15:27:46.820Z,32.90
2022-08-19T15:30:22.016Z,30.30
2022-08-19T15:32:49.340Z,29.30
2022-08-19T15:35:19.218Z,29.20
2022-08-19T15:37:49.176Z,29.10
2022-08-19T15:40:16.161Z,29.20
2022-08-19T15:42:43.512Z,29.00
2022-08-19T15:45:12.438Z,28.90
2022-08-19T15:47:39.798Z,28.80
2022-08-19T15:50:15.133Z,28.90
2022-08-19T15:52:49.919Z,28.90
2022-08-19T15:55:32.674Z,29.00
2022-08-19T15:58:29.378Z,28.90
2022-08-19T16:01:20.699Z,29.10
2022-08-19T16:04:14.044Z,28.80
2022-08-19T16:06:46.097Z,28.90
2022-08-19T16:09:13.240Z,28.90
2022-08-19T16:11:45.449Z,29.00
2022-08-19T16:14:17.095Z,28.70
2022-08-19T16:16:46.566Z,29.10
2022-08-19T16:19:15.792Z,29.50
2022-08-19T16:21:48.503Z,29.40
2022-08-19T16:24:20.889Z,29.20
2022-08-19T16:26:48.437Z,29.30
2022-08-19T16:29:34.275Z,29.90
2022-08-19T16:32:05.990Z,32.80
2022-08-19T16:34:33.825Z,34.70
2022-08-19T16:37:01.609Z,36.30
2022-08-19T16:39:28.294Z,37.90
2022-08-19T16:41:54.958Z,38.40
2022-08-19T16:44:21.919Z,39.60
2022-08-19T16:46:57.264Z,40.10
2022-08-19T16:49:54.042Z,40.60
2022-08-19T16:52:15.968Z,42.10
2022-08-19T16:54:43.507Z,43.00
2022-08-19T16:57:11.813Z,42.90
2022-08-19T16:59:48.121Z,41.50
2022-08-19T17:02:17.067Z,42.30
2022-08-19T17:04:43.673Z,43.50
2022-08-19T17:07:10.667Z,42.00
2022-08-19T17:09:37.884Z,41.40
2022-08-19T17:12:04.948Z,41.80
2022-08-19T17:14:31.663Z,41.00
2022-08-19T17:16:58.287Z,40.70
2022-08-19T17:19:45.369Z,40.70
2022-08-19T17:22:12.976Z,39.80
2022-08-19T17:24:40.837Z,38.50
2022-08-19T17:27:07.569Z,37.50
2022-08-19T17:29:34.767Z,38.90
2022-08-19T17:32:02.210Z,40.00
2022-08-19T17:34:28.891Z,39.90
2022-08-19T17:36:56.872Z,40.00
2022-08-19T17:39:25.199Z,38.20
2022-08-19T17:41:51.892Z,37.30
2022-08-19T17:44:18.859Z,36.40
2022-08-19T17:46:46.594Z,36.80
2022-08-19T17:49:14.117Z,35.80
2022-08-19T17:51:44.823Z,34.40
2022-08-19T17:54:15.490Z,32.50
2022-08-19T17:56:43.221Z,30.40
2022-08-19T17:59:13.714Z,29.10
2022-08-19T18:01:53.902Z,28.40
2022-08-19T18:04:25.702Z,28.00
2022-08-19T18:06:55.006Z,27.40
2022-08-19T18:09:41.707Z,27.10
2022-08-19T18:12:13.796Z,26.80
2022-08-19T18:14:41.512Z,26.60
2022-08-19T18:17:12.330Z,26.40
2022-08-19T18:19:43.027Z,26.20
2022-08-19T18:22:33.508Z,26.00
2022-08-19T18:25:03.997Z,25.80
2022-08-19T18:27:30.863Z,25.40
2022-08-19T18:29:59.106Z,25.30
2022-08-19T18:32:30.574Z,25.10
2022-08-19T18:34:57.217Z,25.00
2022-08-19T18:37:25.987Z,24.80
2022-08-19T18:40:11.262Z,24.60
2022-08-19T18:43:04.312Z,24.50
2022-08-19T18:45:49.816Z,24.30
2022-08-19T18:48:35.161Z,24.00
2022-08-19T18:51:02.318Z,23.90
2022-08-19T18:53:31.992Z,23.80
2022-08-19T18:55:59.532Z,23.60
2022-08-19T18:58:34.917Z,23.50
2022-08-19T19:01:18.748Z,23.30
2022-08-19T19:03:53.963Z,23.10
2022-08-19T19:06:27.532Z,23.00
2022-08-19T19:08:55.070Z,22.90
2022-08-19T19:11:30.756Z,22.80
2022-08-19T19:13:57.468Z,22.70
2022-08-19T19:16:24.853Z,22.60
2022-08-19T19:18:52.715Z,22.60
2022-08-19T19:21:20.882Z,22.50
2022-08-19T19:23:47.510Z,22.40
2022-08-19T19:26:14.571Z,22.40
2022-08-19T19:28:48.490Z,22.40
2022-08-19T19:31:26.520Z,22.30
2022-08-19T19:33:54.909Z,22.20
2022-08-19T19:36:22.317Z,22.10
2022-08-19T19:38:49.145Z,22.00
2022-08-19T19:41:20.530Z,21.90
2022-08-19T19:43:56.630Z,21.90
2022-08-19T19:46:32.607Z,21.80
2022-08-19T19:49:00.312Z,21.60
2022-08-19T19:51:28.060Z,21.50
2022-08-19T19:53:55.638Z,21.40
2022-08-19T19:56:23.787Z,21.40
2022-08-19T19:58:50.590Z,21.30
2022-08-19T20:01:21.064Z,21.20
2022-08-19T20:03:51.310Z,21.10
2022-08-19T20:06:19.479Z,21.10
2022-08-19T20:09:05.545Z,21.00
2022-08-19T20:11:37.726Z,20.90
2022-08-19T20:14:11.692Z,20.90
2022-08-19T20:16:41.393Z,20.80
2022-08-19T20:19:08.686Z,20.80
2022-08-19T20:21:36.219Z,20.80
2022-08-19T20:24:08.884Z,20.70
2022-08-19T20:26:36.586Z,20.70
2022-08-19T20:29:11.263Z,20.70
2022-08-19T20:31:57.535Z,20.60
2022-08-19T20:34:25.902Z,20.60
2022-08-19T20:36:52.581Z,20.50
2022-08-19T20:39:19.230Z,20.50
2022-08-19T20:41:45.871Z,20.40
2022-08-19T20:44:12.586Z,20.40
2022-08-19T20:46:39.763Z,20.40
2022-08-19T20:49:06.470Z,20.30
2022-08-19T20:51:33.191Z,20.30
2022-08-19T20:54:00.040Z,20.30
2022-08-19T20:56:27.956Z,20.30
2022-08-19T20:58:59.763Z,20.20
2022-08-19T21:01:26.861Z,20.20
2022-08-19T21:03:53.514Z,20.20
2022-08-19T21:06:20.446Z,20.20
2022-08-19T21:08:49.872Z,20.20
2022-08-19T21:11:20.622Z,20.20
2022-08-19T21:13:48.272Z,20.20
2022-08-19T21:16:14.915Z,20.30
2022-08-19T21:18:41.669Z,20.30
2022-08-19T21:21:08.322Z,20.30
2022-08-19T21:23:34.976Z,20.30
2022-08-19T21:26:01.695Z,20.30
2022-08-19T21:28:34.962Z,20.20
2022-08-19T21:31:03.942Z,20.10
2022-08-19T21:33:31.934Z,20.10
2022-08-19T21:35:59.955Z,20.10
2022-08-19T21:38:27.079Z,20.00
2022-08-19T21:40:54.093Z,20.00
2022-08-19T21:43:20.877Z,19.90
2022-08-19T21:45:47.969Z,19.90
2022-08-19T21:48:15.092Z,19.80
2022-08-19T21:50:43.337Z,19.70
2022-08-19T21:53:17.891Z,19.70
2022-08-19T21:55:46.070Z,19.60
2022-08-19T21:58:19.964Z,19.60
2022-08-19T22:00:57.801Z,19.50
2022-08-19T22:03:25.691Z,19.40
2022-08-19T22:05:52.498Z,19.40
2022-08-19T22:08:19.155Z,19.40
2022-08-19T22:10:46.548Z,19.30
2022-08-19T22:13:14.494Z,19.20
2022-08-19T22:15:42.327Z,19.20
2022-08-19T22:18:09.097Z,19.10
2022-08-19T22:20:35.762Z,19.20
2022-08-19T22:23:05.854Z,19.20
2022-08-19T22:25:35.812Z,19.30
2022-08-19T22:28:05.763Z,19.30
2022-08-19T22:30:34.255Z,19.40
2022-08-19T22:33:03.870Z,19.40
2022-08-19T22:35:33.143Z,19.40
2022-08-19T22:38:00.384Z,19.50
2022-08-19T22:40:29.597Z,19.40
2022-08-19T22:43:16.298Z,19.40
2022-08-19T22:45:45.043Z,19.20
2022-08-19T22:48:14.489Z,19.30
2022-08-19T22:50:43.628Z,19.30
2022-08-19T22:53:11.847Z,19.20
2022-08-19T22:55:38.912Z,19.10
2022-08-19T22:58:05.814Z,19.10
2022-08-19T23:00:33.540Z,19.00
2022-08-19T23:03:01.514Z,19.10
2022-08-19T23:05:29.313Z,19.10
2022-08-19T23:07:57.770Z,19.20
2022-08-19T23:10:27.996Z,19.10
2022-08-19T23:12:57.746Z,19.10
2022-08-19T23:15:28.566Z,19.00
2022-08-19T23:17:58.394Z,18.90
2022-08-19T23:20:27.733Z,18.80
2022-08-19T23:22:56.175Z,18.90
2022-08-19T23:25:28.012Z,18.80
2022-08-19T23:28:13.322Z,18.80
2022-08-19T23:30:43.861Z,18.70
2022-08-19T23:33:16.122Z,18.70
2022-08-19T23:35:42.721Z,18.70
2022-08-19T23:38:10.107Z,18.80
2022-08-19T23:40:38.646Z,18.70
2022-08-19T23:43:08.069Z,18.60
2022-08-19T23:45:39.416Z,18.60
2022-08-19T23:48:07.103Z,18.60
2022-08-19T23:50:34.797Z,18.60
2022-08-19T23:53:02.222Z,18.60
2022-08-19T23:55:32.843Z,18.50
2022-08-19T23:58:01.167Z,18.50
